Time;durP1;ratioP1;P1;durP2;ratioP2;P2;SDS_P1;SDS_P2;PMS_P1;PMS_P2;Temp;Humidity;BMP_temperature;BMP_pressure;BME280_temperature;BME280_humidity;BME280_pressure;Samples;Min_cycle;Max_cycle;Signal;HPM_P1;HPM_P2
2022/02/18 00:01:33;;;;;;;40.83;26.80;;;;;;;;;;5034382;28;20202;-87
2022/02/18 00:04:02;;;;;;;20.17;16.70;;;;;;;;;;5034474;28;20226;-86
2022/02/18 00:06:29;;;;;;;23.90;18.00;;;;;;;;;;5034634;28;20576;-88
2022/02/18 00:08:57;;;;;;;94.73;53.07;;;;;;;;;;5034462;28;20290;-88
2022/02/18 00:11:24;;;;;;;41.93;25.80;;;;;;;;;;5034262;28;20635;-89
2022/02/18 00:13:51;;;;;;;70.33;38.97;;;;;;;;;;5034045;28;20309;-89
2022/02/18 00:16:20;;;;;;;39.63;26.13;;;;;;;;;;5034547;28;20663;-89
2022/02/18 00:18:47;;;;;;;25.87;16.73;;;;;;;;;;5034019;28;20202;-89
2022/02/18 00:21:15;;;;;;;15.20;13.03;;;;;;;;;;5034246;28;20213;-87
2022/02/18 00:23:42;;;;;;;20.57;13.87;;;;;;;;;;5033985;28;20384;-87
2022/02/18 00:26:10;;;;;;;18.17;13.40;;;;;;;;;;5034388;28;20195;-88
2022/02/18 00:28:37;;;;;;;15.20;12.40;;;;;;;;;;5033955;28;20195;-87
2022/02/18 00:31:05;;;;;;;16.00;13.40;;;;;;;;;;5033887;28;20191;-87
2022/02/18 00:33:33;;;;;;;17.80;12.50;;;;;;;;;;5033681;28;20703;-87
2022/02/18 00:36:01;;;;;;;16.23;11.33;;;;;;;;;;5033839;28;20630;-87
2022/02/18 00:38:28;;;;;;;15.70;12.27;;;;;;;;;;5033557;28;20218;-87
2022/02/18 00:40:55;;;;;;;18.60;13.03;;;;;;;;;;5033757;28;20191;-87
2022/02/18 00:43:23;;;;;;;15.83;12.00;;;;;;;;;;5033523;28;20222;-87
2022/02/18 00:45:50;;;;;;;22.60;13.20;;;;;;;;;;5033898;28;20281;-87
2022/02/18 00:48:17;;;;;;;17.27;11.33;;;;;;;;;;5033701;28;20225;-87
2022/02/18 00:50:46;;;;;;;13.17;9.97;;;;;;;;;;5033316;28;20664;-87
2022/02/18 00:53:14;;;;;;;13.37;9.37;;;;;;;;;;5032949;28;20304;-90
2022/02/18 00:55:41;;;;;;;13.17;8.57;;;;;;;;;;5033607;28;20734;-89
2022/02/18 00:58:09;;;;;;;10.23;7.57;;;;;;;;;;5033468;28;20311;-87
2022/02/18 01:00:36;;;;;;;9.47;7.70;;;;;;;;;;5033243;28;20241;-89
2022/02/18 01:03:03;;;;;;;9.37;6.70;;;;;;;;;;5033310;28;20661;-88
2022/02/18 01:05:31;;;;;;;6.77;5.63;;;;;;;;;;5033335;28;20276;-89
2022/02/18 01:08:00;;;;;;;8.43;6.23;;;;;;;;;;5033204;28;20198;-89
2022/02/18 01:10:28;;;;;;;6.87;4.70;;;;;;;;;;5033167;28;20735;-88
2022/02/18 01:12:55;;;;;;;6.30;4.80;;;;;;;;;;5032837;28;20613;-89
2022/02/18 01:15:23;;;;;;;4.33;3.93;;;;;;;;;;5032982;28;20194;-88
2022/02/18 01:17:50;;;;;;;7.07;4.83;;;;;;;;;;5032981;28;20668;-88
2022/02/18 01:20:18;;;;;;;5.90;4.70;;;;;;;;;;5032975;28;20203;-88
2022/02/18 01:22:45;;;;;;;5.53;5.03;;;;;;;;;;5032694;28;20203;-90
2022/02/18 01:25:15;;;;;;;8.20;5.03;;;;;;;;;;5032326;28;20203;-91
2022/02/18 01:27:42;;;;;;;7.43;4.97;;;;;;;;;;5032909;28;20717;-90
2022/02/18 01:30:11;;;;;;;5.33;4.17;;;;;;;;;;5033030;28;20625;-90
2022/02/18 01:32:39;;;;;;;5.40;3.97;;;;;;;;;;5032749;28;20195;-90
2022/02/18 01:35:08;;;;;;;9.00;3.63;;;;;;;;;;5033128;28;20285;-89
2022/02/18 01:37:35;;;;;;;3.27;3.03;;;;;;;;;;5033619;28;20282;-90
2022/02/18 01:40:03;;;;;;;4.13;3.57;;;;;;;;;;5033089;28;20690;-87
2022/02/18 01:45:01;;;;;;;4.03;3.60;;;;;;;;;;5050377;28;20210;-82
2022/02/18 01:47:28;;;;;;;10.77;4.60;;;;;;;;;;5051018;28;20198;-82
2022/02/18 01:49:58;;;;;;;5.10;3.53;;;;;;;;;;5052018;28;20280;-82
2022/02/18 01:52:27;;;;;;;4.50;3.53;;;;;;;;;;5051902;28;20221;-82
2022/02/18 01:54:54;;;;;;;3.63;3.23;;;;;;;;;;5051761;28;20229;-82
2022/02/18 01:57:22;;;;;;;5.13;3.40;;;;;;;;;;5051827;28;20685;-82
2022/02/18 01:59:49;;;;;;;3.87;3.47;;;;;;;;;;5051941;28;20289;-82
2022/02/18 02:02:18;;;;;;;4.87;4.10;;;;;;;;;;5052149;28;20229;-82
2022/02/18 02:04:46;;;;;;;5.40;3.13;;;;;;;;;;5051794;28;20204;-82
2022/02/18 02:07:14;;;;;;;5.57;4.93;;;;;;;;;;5052074;28;20255;-82
2022/02/18 02:09:42;;;;;;;7.77;4.07;;;;;;;;;;5051733;28;20292;-82
2022/02/18 02:12:10;;;;;;;3.40;3.10;;;;;;;;;;5051680;28;20193;-82
2022/02/18 02:14:37;;;;;;;6.10;2.73;;;;;;;;;;5052185;28;20222;-81
2022/02/18 02:17:05;;;;;;;6.57;2.77;;;;;;;;;;5051847;28;20201;-82
2022/02/18 02:19:33;;;;;;;7.70;2.97;;;;;;;;;;5051673;28;20289;-82
2022/02/18 02:22:01;;;;;;;2.87;2.57;;;;;;;;;;5051781;28;20632;-82
2022/02/18 02:24:29;;;;;;;4.33;2.43;;;;;;;;;;5051665;28;20228;-82
2022/02/18 02:26:57;;;;;;;3.07;2.77;;;;;;;;;;5051783;28;20266;-82
2022/02/18 02:29:24;;;;;;;6.57;2.50;;;;;;;;;;5051956;28;20233;-82
2022/02/18 02:31:51;;;;;;;5.10;2.57;;;;;;;;;;5051682;28;20194;-82
2022/02/18 02:34:19;;;;;;;2.33;2.13;;;;;;;;;;5051365;28;20225;-82
2022/02/18 02:36:46;;;;;;;7.30;2.63;;;;;;;;;;5055462;28;20201;-82
2022/02/18 02:39:13;;;;;;;2.00;1.80;;;;;;;;;;5055348;28;20237;-82
2022/02/18 02:41:42;;;;;;;2.87;2.63;;;;;;;;;;5055599;28;20672;-81
2022/02/18 02:44:09;;;;;;;1.77;1.67;;;;;;;;;;5054996;28;20225;-81
2022/02/18 02:46:37;;;;;;;2.13;1.93;;;;;;;;;;5055323;28;20190;-81
2022/02/18 02:49:05;;;;;;;4.03;2.20;;;;;;;;;;5055406;28;20209;-81
2022/02/18 02:51:32;;;;;;;2.13;1.70;;;;;;;;;;5055201;28;20194;-81
2022/02/18 02:54:00;;;;;;;3.53;1.53;;;;;;;;;;5055122;28;20272;-81
2022/02/18 02:56:28;;;;;;;2.73;1.43;;;;;;;;;;5055112;28;20293;-81
2022/02/18 02:58:57;;;;;;;1.63;1.53;;;;;;;;;;5054957;28;20201;-81
2022/02/18 03:01:25;;;;;;;1.90;1.80;;;;;;;;;;5055307;28;20197;-81
2022/02/18 03:03:52;;;;;;;1.57;1.47;;;;;;;;;;5054767;28;20631;-81
2022/02/18 03:06:19;;;;;;;2.70;1.80;;;;;;;;;;5054839;28;20649;-81
2022/02/18 03:08:46;;;;;;;3.43;1.87;;;;;;;;;;5054958;28;20293;-81
2022/02/18 03:11:17;;;;;;;1.97;1.53;;;;;;;;;;5054890;28;20198;-81
2022/02/18 03:13:45;;;;;;;1.77;1.67;;;;;;;;;;5054537;28;20212;-81
2022/02/18 03:16:14;;;;;;;1.97;1.40;;;;;;;;;;5054767;28;20200;-80
2022/02/18 03:18:41;;;;;;;1.57;1.43;;;;;;;;;;5054655;28;20202;-81
2022/02/18 03:21:09;;;;;;;2.80;1.70;;;;;;;;;;5054527;28;20232;-81
2022/02/18 03:23:37;;;;;;;1.37;1.13;;;;;;;;;;5054496;28;20229;-81
2022/02/18 03:26:04;;;;;;;2.87;1.57;;;;;;;;;;5054727;28;20198;-81
2022/02/18 03:28:31;;;;;;;2.20;1.10;;;;;;;;;;5052950;28;20654;-81
2022/02/18 03:30:59;;;;;;;1.10;1.00;;;;;;;;;;5052352;28;20271;-81
2022/02/18 03:33:28;;;;;;;1.10;1.10;;;;;;;;;;5054041;28;20571;-81
2022/02/18 03:35:55;;;;;;;0.80;0.80;;;;;;;;;;5053989;28;20238;-81
2022/02/18 03:38:22;;;;;;;0.90;0.80;;;;;;;;;;5054340;28;20578;-81
2022/02/18 03:40:49;;;;;;;3.00;0.63;;;;;;;;;;5053782;28;20288;-80
2022/02/18 03:43:17;;;;;;;0.73;0.73;;;;;;;;;;5053767;28;20316;-80
2022/02/18 03:45:44;;;;;;;1.17;1.00;;;;;;;;;;5053913;28;20202;-81
2022/02/18 03:48:11;;;;;;;0.70;0.70;;;;;;;;;;5053122;28;20588;-81
2022/02/18 03:50:41;;;;;;;2.40;0.93;;;;;;;;;;5053553;28;20206;-81
2022/02/18 03:53:08;;;;;;;5.97;1.10;;;;;;;;;;5053670;28;20198;-81
2022/02/18 03:55:35;;;;;;;0.83;0.63;;;;;;;;;;5053572;28;20225;-81
2022/02/18 03:58:03;;;;;;;0.70;0.70;;;;;;;;;;5054099;28;20198;-81
2022/02/18 04:00:30;;;;;;;5.27;0.90;;;;;;;;;;5053840;28;20224;-81
2022/02/18 04:02:57;;;;;;;2.77;1.00;;;;;;;;;;5053351;28;20193;-81
2022/02/18 04:05:24;;;;;;;1.97;0.73;;;;;;;;;;5053660;28;20577;-82
2022/02/18 04:07:54;;;;;;;5.13;1.50;;;;;;;;;;5053336;28;20209;-82
2022/02/18 04:10:21;;;;;;;1.80;0.87;;;;;;;;;;5053741;28;20201;-81
2022/02/18 04:12:48;;;;;;;2.23;0.93;;;;;;;;;;5053157;28;20613;-81
2022/02/18 04:15:15;;;;;;;0.63;0.63;;;;;;;;;;5052915;28;20275;-81
2022/02/18 04:17:42;;;;;;;1.00;1.00;;;;;;;;;;5053804;28;20579;-81
2022/02/18 04:20:11;;;;;;;1.53;0.63;;;;;;;;;;5053221;28;20202;-82
2022/02/18 04:22:38;;;;;;;2.73;0.73;;;;;;;;;;5053119;28;20293;-80
2022/02/18 04:25:08;;;;;;;0.70;0.70;;;;;;;;;;5051900;28;20281;-81
2022/02/18 04:27:36;;;;;;;5.50;0.90;;;;;;;;;;5052184;28;20198;-80
2022/02/18 04:30:03;;;;;;;0.90;0.90;;;;;;;;;;5052343;28;20259;-81
2022/02/18 04:32:30;;;;;;;0.60;0.60;;;;;;;;;;5052038;28;20585;-80
2022/02/18 04:34:58;;;;;;;0.60;0.60;;;;;;;;;;5052216;28;20649;-80
2022/02/18 04:37:25;;;;;;;0.80;0.80;;;;;;;;;;5051678;28;20296;-81
2022/02/18 04:39:52;;;;;;;0.77;0.70;;;;;;;;;;5051783;28;20259;-81
2022/02/18 04:42:21;;;;;;;38.17;19.10;;;;;;;;;;5051730;28;20280;-81
2022/02/18 04:44:48;;;;;;;2.03;1.40;;;;;;;;;;5051589;28;20237;-81
2022/02/18 04:47:15;;;;;;;2.80;1.27;;;;;;;;;;5051566;28;20240;-81
2022/02/18 04:49:43;;;;;;;1.47;1.37;;;;;;;;;;5051645;28;20209;-81
2022/02/18 04:52:10;;;;;;;1.80;1.50;;;;;;;;;;5051312;28;20280;-81
2022/02/18 04:54:38;;;;;;;2.57;2.30;;;;;;;;;;5049009;28;20268;-81
2022/02/18 04:57:05;;;;;;;2.70;1.67;;;;;;;;;;5051360;28;20197;-81
2022/02/18 04:59:34;;;;;;;1.83;1.67;;;;;;;;;;5050467;28;20229;-82
2022/02/18 05:02:01;;;;;;;2.17;1.97;;;;;;;;;;5051457;28;20190;-81
2022/02/18 05:04:28;;;;;;;2.30;2.10;;;;;;;;;;5051130;28;20194;-82
2022/02/18 05:06:55;;;;;;;2.33;1.40;;;;;;;;;;5051438;28;20403;-81
2022/02/18 05:09:22;;;;;;;0.80;0.80;;;;;;;;;;5051323;28;20194;-82
2022/02/18 05:11:50;;;;;;;0.80;0.80;;;;;;;;;;5051275;28;20289;-82
2022/02/18 05:14:17;;;;;;;0.80;0.80;;;;;;;;;;5051173;28;20233;-81
2022/02/18 05:16:46;;;;;;;1.37;1.27;;;;;;;;;;5050892;28;20229;-81
2022/02/18 05:19:13;;;;;;;1.07;1.00;;;;;;;;;;5051421;28;20202;-81
2022/02/18 05:21:40;;;;;;;3.17;1.10;;;;;;;;;;5050906;28;20193;-80
2022/02/18 05:24:08;;;;;;;1.00;1.00;;;;;;;;;;5051299;28;20721;-81
2022/02/18 05:26:36;;;;;;;1.87;1.13;;;;;;;;;;5051351;28;20206;-81
2022/02/18 05:29:05;;;;;;;1.10;1.00;;;;;;;;;;5051024;28;20201;-81
2022/02/18 05:31:32;;;;;;;1.23;1.00;;;;;;;;;;5050732;28;20206;-81
2022/02/18 05:34:01;;;;;;;2.17;0.90;;;;;;;;;;5052324;28;20194;-81
2022/02/18 05:36:28;;;;;;;1.07;1.00;;;;;;;;;;5052005;28;20288;-81
2022/02/18 05:38:56;;;;;;;1.07;0.90;;;;;;;;;;5052439;28;20206;-81
2022/02/18 05:41:24;;;;;;;1.20;1.10;;;;;;;;;;5052007;28;20194;-81
2022/02/18 05:43:51;;;;;;;2.70;2.20;;;;;;;;;;5051741;28;20248;-81
2022/02/18 05:46:18;;;;;;;1.77;1.07;;;;;;;;;;5052314;28;20198;-81
2022/02/18 05:48:45;;;;;;;2.73;1.60;;;;;;;;;;5052042;28;20580;-81
2022/02/18 05:51:14;;;;;;;2.80;1.43;;;;;;;;;;5052042;28;20201;-81
2022/02/18 05:53:41;;;;;;;1.17;1.07;;;;;;;;;;5051948;28;20710;-81
2022/02/18 05:56:08;;;;;;;1.13;1.03;;;;;;;;;;5051738;28;20228;-81
2022/02/18 05:58:36;;;;;;;1.33;1.13;;;;;;;;;;5051807;28;20213;-81
2022/02/18 06:01:03;;;;;;;1.20;1.07;;;;;;;;;;5051862;28;20200;-81
2022/02/18 06:03:30;;;;;;;1.83;1.50;;;;;;;;;;5051998;28;20237;-81
2022/02/18 06:05:57;;;;;;;1.57;1.10;;;;;;;;;;5051923;28;20193;-81
2022/02/18 06:08:26;;;;;;;8.43;1.90;;;;;;;;;;5052091;28;20198;-81
2022/02/18 06:10:53;;;;;;;1.20;1.10;;;;;;;;;;5054275;28;20281;-80
2022/02/18 06:13:20;;;;;;;1.73;0.80;;;;;;;;;;5055865;28;20237;-81
2022/02/18 06:15:48;;;;;;;1.23;1.20;;;;;;;;;;5056005;28;20257;-80
2022/02/18 06:18:15;;;;;;;2.37;2.17;;;;;;;;;;5055729;28;20225;-80
2022/02/18 06:20:42;;;;;;;3.10;1.37;;;;;;;;;;5055571;28;20200;-81
2022/02/18 06:23:09;;;;;;;3.13;0.90;;;;;;;;;;5055762;28;20194;-81
2022/02/18 06:25:38;;;;;;;2.67;1.20;;;;;;;;;;5055584;28;20255;-80
2022/02/18 06:28:07;;;;;;;1.90;1.80;;;;;;;;;;5055530;28;20198;-81
2022/02/18 06:30:35;;;;;;;2.07;1.30;;;;;;;;;;5055625;28;20198;-81
2022/02/18 06:33:02;;;;;;;0.90;0.90;;;;;;;;;;5055745;28;20197;-81
2022/02/18 06:35:30;;;;;;;2.17;1.20;;;;;;;;;;5055323;28;20224;-81
2022/02/18 06:37:57;;;;;;;0.70;0.70;;;;;;;;;;5055402;28;20229;-81
2022/02/18 06:40:25;;;;;;;1.57;1.20;;;;;;;;;;5055277;28;20256;-81
2022/02/18 06:42:53;;;;;;;1.97;0.97;;;;;;;;;;5055098;28;20289;-81
2022/02/18 06:45:21;;;;;;;1.23;1.13;;;;;;;;;;5055120;28;20273;-81
2022/02/18 06:47:49;;;;;;;7.90;2.10;;;;;;;;;;5055218;28;20235;-81
2022/02/18 06:50:17;;;;;;;11.30;3.77;;;;;;;;;;5055205;28;20281;-81
2022/02/18 06:52:44;;;;;;;11.80;4.90;;;;;;;;;;5055358;28;20623;-81
2022/02/18 06:55:12;;;;;;;8.27;3.10;;;;;;;;;;5054929;28;20222;-81
2022/02/18 06:57:40;;;;;;;4.07;1.83;;;;;;;;;;5054950;28;20251;-81
2022/02/18 07:00:11;;;;;;;4.47;2.50;;;;;;;;;;5054891;28;20200;-81
2022/02/18 07:02:39;;;;;;;5.13;3.00;;;;;;;;;;5054974;28;20226;-81
2022/02/18 07:05:07;;;;;;;7.47;3.07;;;;;;;;;;5055094;28;20225;-81
2022/02/18 07:07:34;;;;;;;3.17;2.40;;;;;;;;;;5054919;28;20198;-81
2022/02/18 07:10:02;;;;;;;1.60;1.43;;;;;;;;;;5054830;28;20198;-81
2022/02/18 07:12:29;;;;;;;2.83;2.03;;;;;;;;;;5054825;28;20244;-81
2022/02/18 07:14:56;;;;;;;2.83;2.20;;;;;;;;;;5054560;28;20226;-81
2022/02/18 07:17:26;;;;;;;4.63;1.93;;;;;;;;;;5054648;28;20202;-81
2022/02/18 07:19:54;;;;;;;24.67;10.37;;;;;;;;;;5054527;28;20201;-81
2022/02/18 07:22:21;;;;;;;5.17;2.97;;;;;;;;;;5053769;28;20579;-81
2022/02/18 07:24:50;;;;;;;9.10;3.27;;;;;;;;;;5054471;28;20233;-81
2022/02/18 07:27:17;;;;;;;7.57;2.20;;;;;;;;;;5054472;28;20240;-81
2022/02/18 07:29:44;;;;;;;3.80;2.53;;;;;;;;;;5054421;28;20289;-81
2022/02/18 07:32:13;;;;;;;2.60;2.40;;;;;;;;;;5052842;28;20244;-81
2022/02/18 07:34:42;;;;;;;7.17;3.43;;;;;;;;;;5053112;28;20225;-81
2022/02/18 07:37:09;;;;;;;2.00;1.43;;;;;;;;;;5054143;28;20194;-81
2022/02/18 07:39:36;;;;;;;3.73;2.20;;;;;;;;;;5054380;28;20237;-81
2022/02/18 07:42:04;;;;;;;6.53;3.10;;;;;;;;;;5054032;28;20198;-81
2022/02/18 07:44:31;;;;;;;3.00;2.07;;;;;;;;;;5053955;28;20240;-81
2022/02/18 07:46:58;;;;;;;5.33;1.33;;;;;;;;;;5054402;28;20194;-81
2022/02/18 07:49:25;;;;;;;6.50;1.97;;;;;;;;;;5054047;28;20198;-81
2022/02/18 07:51:54;;;;;;;5.87;2.07;;;;;;;;;;5053938;28;20198;-81
2022/02/18 07:54:21;;;;;;;3.40;2.93;;;;;;;;;;5053884;28;20200;-81
2022/02/18 07:56:49;;;;;;;3.47;2.37;;;;;;;;;;5053828;28;20225;-81
2022/02/18 07:59:16;;;;;;;1.67;1.57;;;;;;;;;;5054190;28;20256;-81
2022/02/18 08:01:43;;;;;;;2.17;1.40;;;;;;;;;;5053706;28;20630;-81
2022/02/18 08:04:10;;;;;;;5.67;2.33;;;;;;;;;;5054012;28;20204;-81
2022/02/18 08:06:38;;;;;;;3.87;1.50;;;;;;;;;;5053801;28;20755;-81
2022/02/18 08:09:06;;;;;;;5.40;1.50;;;;;;;;;;5053724;28;20302;-80
2022/02/18 08:11:33;;;;;;;1.87;1.60;;;;;;;;;;5053911;28;20202;-81
2022/02/18 08:14:01;;;;;;;3.73;3.30;;;;;;;;;;5053913;28;20221;-81
2022/02/18 08:16:31;;;;;;;3.13;2.20;;;;;;;;;;5053447;28;20222;-81
2022/02/18 08:18:58;;;;;;;2.83;2.40;;;;;;;;;;5053504;28;20201;-80
2022/02/18 08:21:26;;;;;;;5.53;1.90;;;;;;;;;;5053418;28;20650;-80
2022/02/18 08:23:53;;;;;;;3.10;1.90;;;;;;;;;;5053404;28;20194;-79
2022/02/18 08:26:22;;;;;;;2.57;2.37;;;;;;;;;;5053486;28;20285;-80
2022/02/18 08:28:50;;;;;;;3.70;1.43;;;;;;;;;;5053521;28;20208;-80
2022/02/18 08:31:17;;;;;;;4.90;1.43;;;;;;;;;;5053453;28;20225;-80
2022/02/18 08:33:44;;;;;;;1.23;1.20;;;;;;;;;;5053075;28;20238;-79
2022/02/18 08:36:12;;;;;;;1.60;1.50;;;;;;;;;;5053103;28;20308;-80
2022/02/18 08:38:41;;;;;;;1.43;1.33;;;;;;;;;;5053330;28;20716;-80
2022/02/18 08:41:10;;;;;;;2.30;1.30;;;;;;;;;;5053152;28;20194;-80
2022/02/18 08:43:38;;;;;;;9.30;1.70;;;;;;;;;;5052800;28;20233;-80
2022/02/18 08:46:06;;;;;;;2.90;1.27;;;;;;;;;;5052938;28;20274;-80
2022/02/18 08:48:33;;;;;;;2.10;1.23;;;;;;;;;;5053221;28;20281;-80
2022/02/18 08:51:01;;;;;;;7.33;1.60;;;;;;;;;;5053141;28;20198;-80
2022/02/18 08:53:28;;;;;;;8.83;1.80;;;;;;;;;;5052986;28;20255;-80
2022/02/18 08:55:55;;;;;;;3.43;1.20;;;;;;;;;;5053183;28;20605;-80
2022/02/18 08:58:23;;;;;;;3.03;1.50;;;;;;;;;;5052831;28;20696;-80
2022/02/18 09:00:52;;;;;;;1.17;1.07;;;;;;;;;;5053126;28;20198;-80
2022/02/18 09:03:19;;;;;;;1.23;1.13;;;;;;;;;;5052663;28;20202;-80
2022/02/18 09:05:47;;;;;;;1.97;1.07;;;;;;;;;;5052639;28;20248;-80
2022/02/18 09:08:14;;;;;;;1.43;1.27;;;;;;;;;;5052762;28;20252;-79
2022/02/18 09:10:44;;;;;;;3.30;1.30;;;;;;;;;;5052521;28;20206;-80
2022/02/18 09:13:11;;;;;;;1.83;1.40;;;;;;;;;;5052960;28;20225;-80
2022/02/18 09:15:39;;;;;;;3.93;1.63;;;;;;;;;;5052544;28;20259;-80
2022/02/18 09:18:07;;;;;;;5.73;1.87;;;;;;;;;;5052585;28;20194;-80
2022/02/18 09:20:35;;;;;;;1.70;1.27;;;;;;;;;;5052789;28;20251;-80
2022/02/18 09:23:02;;;;;;;3.37;2.53;;;;;;;;;;5052282;28;20201;-80
2022/02/18 09:25:29;;;;;;;2.97;1.63;;;;;;;;;;5052492;28;20251;-80
2022/02/18 09:27:57;;;;;;;2.63;1.30;;;;;;;;;;5052461;28;20236;-80
2022/02/18 09:30:24;;;;;;;1.53;0.97;;;;;;;;;;5052755;28;20197;-80
2022/02/18 09:32:52;;;;;;;2.80;1.27;;;;;;;;;;5052297;28;20252;-80
2022/02/18 09:35:21;;;;;;;2.50;1.60;;;;;;;;;;5052047;28;20200;-80
2022/02/18 09:37:48;;;;;;;2.57;1.97;;;;;;;;;;5052164;28;20194;-79
2022/02/18 09:40:16;;;;;;;3.47;1.97;;;;;;;;;;5052193;28;20643;-80
2022/02/18 09:42:43;;;;;;;2.60;1.57;;;;;;;;;;5052543;28;20206;-80
2022/02/18 09:45:12;;;;;;;2.27;1.40;;;;;;;;;;5051633;28;20190;-80
2022/02/18 09:47:41;;;;;;;2.80;2.13;;;;;;;;;;5052413;28;20197;-80
2022/02/18 09:50:09;;;;;;;7.53;3.57;;;;;;;;;;5052068;28;20305;-80
2022/02/18 09:52:38;;;;;;;4.77;1.33;;;;;;;;;;5052101;28;20198;-80
2022/02/18 09:55:06;;;;;;;2.37;1.60;;;;;;;;;;5052275;28;20198;-80
2022/02/18 09:57:35;;;;;;;1.83;1.73;;;;;;;;;;5051869;28;20256;-80
2022/02/18 10:00:05;;;;;;;4.20;1.80;;;;;;;;;;5051955;28;20557;-80
2022/02/18 10:02:33;;;;;;;2.07;1.50;;;;;;;;;;5051981;28;20276;-80
2022/02/18 10:05:00;;;;;;;2.57;1.60;;;;;;;;;;5051957;28;20202;-81
2022/02/18 10:07:29;;;;;;;1.10;1.00;;;;;;;;;;5052306;28;20197;-80
2022/02/18 10:09:58;;;;;;;7.03;1.70;;;;;;;;;;5051847;28;20204;-81
2022/02/18 10:12:35;;;;;;;2.03;1.30;;;;;;;;;;5051859;28;20285;-80
2022/02/18 10:15:09;;;;;;;1.33;1.23;;;;;;;;;;5051851;28;20197;-80
2022/02/18 10:17:42;;;;;;;1.57;1.23;;;;;;;;;;5051979;28;20292;-80
2022/02/18 10:20:17;;;;;;;4.17;1.23;;;;;;;;;;5051720;28;20256;-80
2022/02/18 10:22:58;;;;;;;2.77;1.50;;;;;;;;;;5051764;28;20197;-80
2022/02/18 10:25:28;;;;;;;4.30;1.37;;;;;;;;;;5051775;28;20232;-81
2022/02/18 10:27:56;;;;;;;3.23;1.33;;;;;;;;;;5051994;28;20635;-80
2022/02/18 10:30:25;;;;;;;4.40;1.10;;;;;;;;;;5051559;28;20202;-81
2022/02/18 10:32:53;;;;;;;2.47;2.03;;;;;;;;;;5051745;28;20288;-80
2022/02/18 10:35:22;;;;;;;1.60;0.97;;;;;;;;;;5051554;28;20642;-80
2022/02/18 10:37:53;;;;;;;7.60;1.60;;;;;;;;;;5051805;28;20221;-81
2022/02/18 10:40:21;;;;;;;9.53;1.50;;;;;;;;;;5051718;28;20190;-80
2022/02/18 10:42:51;;;;;;;3.83;1.17;;;;;;;;;;5051343;28;20206;-80
2022/02/18 10:45:19;;;;;;;1.30;1.20;;;;;;;;;;5051546;28;20240;-81
2022/02/18 10:47:48;;;;;;;1.90;1.70;;;;;;;;;;5051542;28;20234;-81
2022/02/18 10:50:18;;;;;;;3.83;1.37;;;;;;;;;;5051847;28;20198;-81
2022/02/18 10:53:14;;;;;;;2.50;1.20;;;;;;;;;;5051388;28;20204;-81
2022/02/18 10:55:54;;;;;;;4.20;1.37;;;;;;;;;;5051947;28;20273;-81
2022/02/18 10:58:24;;;;;;;4.50;1.20;;;;;;;;;;5055088;28;20194;-80
2022/02/18 11:01:03;;;;;;;1.43;1.20;;;;;;;;;;5055300;28;20201;-80
2022/02/18 11:03:31;;;;;;;0.90;0.90;;;;;;;;;;5055010;28;20186;-81
2022/02/18 11:06:11;;;;;;;1.93;1.43;;;;;;;;;;5055035;28;20201;-81
2022/02/18 11:08:39;;;;;;;12.37;1.57;;;;;;;;;;5054905;28;20196;-81
2022/02/18 11:11:11;;;;;;;5.23;1.43;;;;;;;;;;5054810;28;20198;-80
2022/02/18 11:13:40;;;;;;;2.73;1.50;;;;;;;;;;5054830;28;20194;-81
2022/02/18 11:16:10;;;;;;;3.70;1.10;;;;;;;;;;5055083;28;20225;-81
2022/02/18 11:18:39;;;;;;;5.83;1.50;;;;;;;;;;5054985;28;20198;-81
2022/02/18 11:21:07;;;;;;;8.63;2.03;;;;;;;;;;5054711;28;20193;-81
2022/02/18 11:23:35;;;;;;;5.57;1.33;;;;;;;;;;5054908;28;20281;-81
2022/02/18 11:26:02;;;;;;;6.27;4.57;;;;;;;;;;5054608;28;20209;-81
2022/02/18 11:28:30;;;;;;;3.13;1.60;;;;;;;;;;5054488;28;20566;-81
2022/02/18 11:31:02;;;;;;;4.17;1.90;;;;;;;;;;5054685;28;20199;-81
2022/02/18 11:33:41;;;;;;;2.63;1.97;;;;;;;;;;5054615;28;20269;-81
2022/02/18 11:36:21;;;;;;;2.90;1.60;;;;;;;;;;5054813;28;20311;-81
2022/02/18 11:38:57;;;;;;;2.30;1.83;;;;;;;;;;5054628;28;20187;-81
2022/02/18 11:41:44;;;;;;;5.77;2.83;;;;;;;;;;5054229;28;20645;-81
2022/02/18 11:44:13;;;;;;;4.30;1.70;;;;;;;;;;5053687;28;20271;-81
2022/02/18 11:46:43;;;;;;;1.80;1.37;;;;;;;;;;5054177;28;20201;-81
2022/02/18 11:49:10;;;;;;;2.70;1.53;;;;;;;;;;5054279;28;20645;-81
2022/02/18 11:51:42;;;;;;;2.20;1.60;;;;;;;;;;5054310;28;20291;-81
2022/02/18 11:54:24;;;;;;;4.53;2.20;;;;;;;;;;5054358;28;20741;-81
2022/02/18 11:56:54;;;;;;;5.07;1.67;;;;;;;;;;5054384;28;20208;-81
2022/02/18 11:59:21;;;;;;;5.40;1.53;;;;;;;;;;5054474;28;20227;-81
2022/02/18 12:02:04;;;;;;;2.07;1.60;;;;;;;;;;5054264;28;20207;-81
2022/02/18 12:04:32;;;;;;;3.07;2.07;;;;;;;;;;5054151;28;20187;-81
2022/02/18 12:07:28;;;;;;;6.50;2.40;;;;;;;;;;5053792;28;20291;-82
2022/02/18 12:09:59;;;;;;;6.47;1.87;;;;;;;;;;5054077;28;20635;-82
2022/02/18 12:12:29;;;;;;;1.47;1.37;;;;;;;;;;5054287;28;20276;-82
2022/02/18 12:14:57;;;;;;;3.10;1.43;;;;;;;;;;5053810;28;20209;-81
2022/02/18 12:17:26;;;;;;;4.60;1.90;;;;;;;;;;5053428;28;20218;-82
2022/02/18 12:19:54;;;;;;;2.77;1.90;;;;;;;;;;5053505;28;20194;-82
2022/02/18 12:22:39;;;;;;;3.70;1.53;;;;;;;;;;5053692;28;20202;-82
2022/02/18 12:25:08;;;;;;;1.93;1.20;;;;;;;;;;5053440;28;20290;-82
2022/02/18 12:27:38;;;;;;;2.23;1.27;;;;;;;;;;5053650;28;20225;-82
2022/02/18 12:30:45;;;;;;;3.97;1.57;;;;;;;;;;5053714;28;20188;-81
2022/02/18 12:33:14;;;;;;;2.30;1.53;;;;;;;;;;5053372;28;20640;-82
2022/02/18 12:35:42;;;;;;;4.83;1.57;;;;;;;;;;5053289;28;20202;-82
2022/02/18 12:38:11;;;;;;;6.50;1.83;;;;;;;;;;5053069;28;20224;-82
2022/02/18 12:40:41;;;;;;;2.70;1.83;;;;;;;;;;5052974;28;20324;-82
2022/02/18 12:43:14;;;;;;;3.00;1.53;;;;;;;;;;5052877;28;20671;-82
2022/02/18 12:45:45;;;;;;;5.60;2.30;;;;;;;;;;5052922;28;20665;-82
2022/02/18 12:48:14;;;;;;;4.30;1.77;;;;;;;;;;5053439;28;20214;-82
2022/02/18 12:50:43;;;;;;;1.60;1.40;;;;;;;;;;5053015;28;20666;-82
2022/02/18 12:53:10;;;;;;;3.07;1.40;;;;;;;;;;5052953;28;20296;-81
2022/02/18 12:55:38;;;;;;;2.77;1.67;;;;;;;;;;5052825;28;20204;-82
2022/02/18 12:58:11;;;;;;;3.97;1.63;;;;;;;;;;5052971;28;20218;-82
2022/02/18 13:00:39;;;;;;;3.70;1.77;;;;;;;;;;5053185;28;20336;-82
2022/02/18 13:03:07;;;;;;;2.03;1.80;;;;;;;;;;5052928;28;20201;-82
2022/02/18 13:05:39;;;;;;;3.53;2.87;;;;;;;;;;5052840;28;20239;-82
2022/02/18 13:08:07;;;;;;;2.50;1.30;;;;;;;;;;5052875;28;20191;-82
2022/02/18 13:10:36;;;;;;;3.90;2.20;;;;;;;;;;5052960;28;20289;-82
2022/02/18 13:13:11;;;;;;;3.27;2.17;;;;;;;;;;5052838;28;20199;-82
2022/02/18 13:15:39;;;;;;;7.07;2.60;;;;;;;;;;5052725;28;20193;-82
2022/02/18 13:18:06;;;;;;;4.57;2.60;;;;;;;;;;5053207;28;20328;-82
2022/02/18 13:20:37;;;;;;;2.60;1.57;;;;;;;;;;5052663;28;20199;-82
2022/02/18 13:23:07;;;;;;;3.10;1.97;;;;;;;;;;5054885;28;20272;-82
2022/02/18 13:25:36;;;;;;;2.50;2.00;;;;;;;;;;5053320;28;20200;-81
2022/02/18 13:28:06;;;;;;;3.20;1.63;;;;;;;;;;5053631;28;20194;-82
2022/02/18 13:30:35;;;;;;;1.80;1.57;;;;;;;;;;5056074;28;20189;-82
2022/02/18 13:33:06;;;;;;;3.10;1.37;;;;;;;;;;5053842;28;20202;-81
2022/02/18 13:35:38;;;;;;;1.70;1.60;;;;;;;;;;5053974;28;20208;-82
2022/02/18 13:38:16;;;;;;;7.03;1.97;;;;;;;;;;5053133;28;20212;-82
2022/02/18 13:40:44;;;;;;;3.63;1.67;;;;;;;;;;5052795;28;20189;-82
2022/02/18 13:43:11;;;;;;;2.47;1.50;;;;;;;;;;5052363;28;20327;-82
2022/02/18 13:45:45;;;;;;;3.63;1.23;;;;;;;;;;5052537;28;20294;-81
2022/02/18 13:48:13;;;;;;;2.10;1.47;;;;;;;;;;5052176;28;20186;-82
2022/02/18 13:50:45;;;;;;;1.50;1.40;;;;;;;;;;5052150;28;20205;-82
2022/02/18 13:53:13;;;;;;;3.27;1.60;;;;;;;;;;5052187;28;20201;-82
2022/02/18 13:55:41;;;;;;;2.00;1.37;;;;;;;;;;5052288;28;20725;-82
2022/02/18 13:58:24;;;;;;;3.47;2.70;;;;;;;;;;5051840;28;20309;-81
2022/02/18 14:00:51;;;;;;;3.70;2.50;;;;;;;;;;5051787;28;20235;-81
2022/02/18 14:03:19;;;;;;;5.60;4.30;;;;;;;;;;5052095;28;20231;-81
2022/02/18 14:05:47;;;;;;;4.23;3.20;;;;;;;;;;5051777;28;20249;-81
2022/02/18 14:08:20;;;;;;;4.63;3.00;;;;;;;;;;5051758;28;20614;-81
2022/02/18 14:10:48;;;;;;;2.63;2.10;;;;;;;;;;5052193;28;20608;-81
2022/02/18 14:13:27;;;;;;;3.00;1.70;;;;;;;;;;5051851;28;20266;-81
2022/02/18 14:16:09;;;;;;;4.43;1.60;;;;;;;;;;5051831;28;20197;-81
2022/02/18 14:18:51;;;;;;;1.83;1.73;;;;;;;;;;5052013;28;20248;-81
2022/02/18 14:21:22;;;;;;;4.93;1.30;;;;;;;;;;5052247;28;20187;-81
2022/02/18 14:23:51;;;;;;;4.30;2.37;;;;;;;;;;5052080;28;20186;-81
2022/02/18 14:26:19;;;;;;;4.10;1.20;;;;;;;;;;5052099;28;20642;-81
2022/02/18 14:28:47;;;;;;;3.27;2.63;;;;;;;;;;5051881;28;20288;-81
2022/02/18 14:31:18;;;;;;;9.67;3.10;;;;;;;;;;5053196;28;20280;-81
2022/02/18 14:33:53;;;;;;;4.07;2.13;;;;;;;;;;5055659;28;20193;-81
2022/02/18 14:36:37;;;;;;;3.83;2.07;;;;;;;;;;5055773;28;20278;-81
2022/02/18 14:39:09;;;;;;;3.13;2.40;;;;;;;;;;5055756;28;20720;-81
2022/02/18 14:41:59;;;;;;;6.33;2.57;;;;;;;;;;5055580;28;20233;-81
2022/02/18 14:44:48;;;;;;;2.90;2.23;;;;;;;;;;5055130;28;20237;-81
2022/02/18 14:47:15;;;;;;;2.13;1.50;;;;;;;;;;5055594;28;20194;-81
2022/02/18 14:49:42;;;;;;;2.63;2.00;;;;;;;;;;5055634;28;20222;-81
2022/02/18 14:52:11;;;;;;;3.43;1.70;;;;;;;;;;5055433;28;20229;-81
2022/02/18 14:54:41;;;;;;;3.40;1.33;;;;;;;;;;5055106;28;20197;-79